sensor_id;sensor_type;location;lat;lon;timestamp;P1;durP1;ratioP1;P2;durP2;ratioP2
28529;SDS011;15737;49.760;6.632;2022-08-19T00:00:46;8.95;;;6.80;;
28529;SDS011;15737;49.760;6.632;2022-08-19T00:03:11;6.75;;;5.65;;
28529;SDS011;15737;49.760;6.632;2022-08-19T00:05:37;7.03;;;6.30;;
28529;SDS011;15737;49.760;6.632;2022-08-19T00:08:02;8.57;;;7.20;;
28529;SDS011;15737;49.760;6.632;2022-08-19T00:10:28;7.30;;;6.30;;
28529;SDS011;15737;49.760;6.632;2022-08-19T00:12:54;9.13;;;7.03;;
28529;SDS011;15737;49.760;6.632;2022-08-19T00:15:20;9.00;;;6.70;;
28529;SDS011;15737;49.760;6.632;2022-08-19T00:17:46;7.32;;;6.55;;
28529;SDS011;15737;49.760;6.632;2022-08-19T00:20:15;8.85;;;6.60;;
28529;SDS011;15737;49.760;6.632;2022-08-19T00:22:44;8.05;;;6.78;;
28529;SDS011;15737;49.760;6.632;2022-08-19T00:25:10;7.87;;;6.57;;
28529;SDS011;15737;49.760;6.632;2022-08-19T00:27:36;7.10;;;6.20;;
28529;SDS011;15737;49.760;6.632;2022-08-19T00:30:03;7.07;;;5.90;;
28529;SDS011;15737;49.760;6.632;2022-08-19T00:32:30;6.53;;;5.90;;
28529;SDS011;15737;49.760;6.632;2022-08-19T00:34:56;9.77;;;6.28;;
28529;SDS011;15737;49.760;6.632;2022-08-19T00:37:22;6.63;;;5.97;;
28529;SDS011;15737;49.760;6.632;2022-08-19T00:39:49;7.28;;;6.55;;
28529;SDS011;15737;49.760;6.632;2022-08-19T00:42:16;6.93;;;6.23;;
28529;SDS011;15737;49.760;6.632;2022-08-19T00:44:43;8.77;;;6.78;;
28529;SDS011;15737;49.760;6.632;2022-08-19T00:47:08;6.88;;;6.18;;
28529;SDS011;15737;49.760;6.632;2022-08-19T00:52:07;7.13;;;6.07;;
28529;SDS011;15737;49.760;6.632;2022-08-19T00:54:37;8.70;;;6.55;;
28529;SDS011;15737;49.760;6.632;2022-08-19T00:57:04;6.53;;;5.93;;
28529;SDS011;15737;49.760;6.632;2022-08-19T00:59:36;8.20;;;6.63;;
28529;SDS011;15737;49.760;6.632;2022-08-19T01:02:04;6.65;;;6.00;;
28529;SDS011;15737;49.760;6.632;2022-08-19T01:04:30;7.90;;;6.35;;
28529;SDS011;15737;49.760;6.632;2022-08-19T01:06:56;6.18;;;5.57;;
28529;SDS011;15737;49.760;6.632;2022-08-19T01:09:22;7.97;;;6.87;;
28529;SDS011;15737;49.760;6.632;2022-08-19T01:11:48;7.38;;;6.32;;
28529;SDS011;15737;49.760;6.632;2022-08-19T01:14:14;8.70;;;6.47;;
28529;SDS011;15737;49.760;6.632;2022-08-19T01:16:41;7.83;;;6.50;;
28529;SDS011;15737;49.760;6.632;2022-08-19T01:19:31;8.00;;;6.70;;
28529;SDS011;15737;49.760;6.632;2022-08-19T01:22:01;7.50;;;6.43;;
28529;SDS011;15737;49.760;6.632;2022-08-19T01:24:48;7.00;;;6.03;;
28529;SDS011;15737;49.760;6.632;2022-08-19T01:27:13;6.90;;;6.20;;
28529;SDS011;15737;49.760;6.632;2022-08-19T01:29:40;9.17;;;7.00;;
28529;SDS011;15737;49.760;6.632;2022-08-19T01:32:11;7.20;;;5.97;;
28529;SDS011;15737;49.760;6.632;2022-08-19T01:34:39;6.87;;;6.17;;
28529;SDS011;15737;49.760;6.632;2022-08-19T01:37:07;7.60;;;6.40;;
28529;SDS011;15737;49.760;6.632;2022-08-19T01:39:36;7.40;;;6.70;;
28529;SDS011;15737;49.760;6.632;2022-08-19T01:42:03;8.63;;;6.50;;
28529;SDS011;15737;49.760;6.632;2022-08-19T01:44:31;7.73;;;6.70;;
28529;SDS011;15737;49.760;6.632;2022-08-19T01:46:56;9.57;;;6.47;;
28529;SDS011;15737;49.760;6.632;2022-08-19T01:49:23;7.30;;;6.60;;
28529;SDS011;15737;49.760;6.632;2022-08-19T01:51:50;7.90;;;6.40;;
28529;SDS011;15737;49.760;6.632;2022-08-19T01:54:17;6.80;;;6.20;;
28529;SDS011;15737;49.760;6.632;2022-08-19T01:56:43;8.17;;;7.13;;
28529;SDS011;15737;49.760;6.632;2022-08-19T01:59:13;8.33;;;6.23;;
28529;SDS011;15737;49.760;6.632;2022-08-19T02:01:42;7.00;;;6.27;;
28529;SDS011;15737;49.760;6.632;2022-08-19T02:04:07;6.00;;;5.50;;
28529;SDS011;15737;49.760;6.632;2022-08-19T02:06:33;7.50;;;6.80;;
28529;SDS011;15737;49.760;6.632;2022-08-19T02:08:59;7.57;;;6.30;;
28529;SDS011;15737;49.760;6.632;2022-08-19T02:11:26;6.13;;;5.27;;
28529;SDS011;15737;49.760;6.632;2022-08-19T02:13:54;8.40;;;7.47;;
28529;SDS011;15737;49.760;6.632;2022-08-19T02:16:20;7.30;;;6.53;;
28529;SDS011;15737;49.760;6.632;2022-08-19T02:18:46;7.43;;;6.10;;
28529;SDS011;15737;49.760;6.632;2022-08-19T02:21:13;9.67;;;7.73;;
28529;SDS011;15737;49.760;6.632;2022-08-19T02:23:40;9.87;;;8.30;;
28529;SDS011;15737;49.760;6.632;2022-08-19T02:26:06;7.37;;;6.43;;
28529;SDS011;15737;49.760;6.632;2022-08-19T02:28:32;6.67;;;6.00;;
28529;SDS011;15737;49.760;6.632;2022-08-19T02:30:58;6.53;;;5.87;;
28529;SDS011;15737;49.760;6.632;2022-08-19T02:33:25;7.27;;;6.30;;
28529;SDS011;15737;49.760;6.632;2022-08-19T02:35:51;6.80;;;6.10;;
28529;SDS011;15737;49.760;6.632;2022-08-19T02:38:16;6.77;;;6.13;;
28529;SDS011;15737;49.760;6.632;2022-08-19T02:40:52;6.77;;;5.97;;
28529;SDS011;15737;49.760;6.632;2022-08-19T02:43:38;8.87;;;6.37;;
28529;SDS011;15737;49.760;6.632;2022-08-19T02:46:19;6.87;;;5.93;;
28529;SDS011;15737;49.760;6.632;2022-08-19T02:48:50;7.87;;;6.63;;
28529;SDS011;15737;49.760;6.632;2022-08-19T02:51:30;7.20;;;6.50;;
28529;SDS011;15737;49.760;6.632;2022-08-19T02:53:57;9.43;;;6.97;;
28529;SDS011;15737;49.760;6.632;2022-08-19T02:56:24;6.83;;;6.13;;
28529;SDS011;15737;49.760;6.632;2022-08-19T02:58:52;8.37;;;6.30;;
28529;SDS011;15737;49.760;6.632;2022-08-19T03:01:20;6.23;;;5.63;;
28529;SDS011;15737;49.760;6.632;2022-08-19T03:03:45;7.10;;;6.30;;
28529;SDS011;15737;49.760;6.632;2022-08-19T03:06:12;6.90;;;6.20;;
28529;SDS011;15737;49.760;6.632;2022-08-19T03:08:39;8.57;;;5.97;;
28529;SDS011;15737;49.760;6.632;2022-08-19T03:11:11;8.63;;;6.07;;
28529;SDS011;15737;49.760;6.632;2022-08-19T03:14:04;6.47;;;5.20;;
28529;SDS011;15737;49.760;6.632;2022-08-19T03:16:33;7.77;;;6.27;;
28529;SDS011;15737;49.760;6.632;2022-08-19T03:19:04;6.57;;;5.90;;
28529;SDS011;15737;49.760;6.632;2022-08-19T03:21:30;8.60;;;6.80;;
28529;SDS011;15737;49.760;6.632;2022-08-19T03:23:58;7.07;;;6.33;;
28529;SDS011;15737;49.760;6.632;2022-08-19T03:26:27;6.73;;;6.00;;
28529;SDS011;15737;49.760;6.632;2022-08-19T03:28:52;7.50;;;6.67;;
28529;SDS011;15737;49.760;6.632;2022-08-19T03:31:19;7.93;;;6.83;;
28529;SDS011;15737;49.760;6.632;2022-08-19T03:33:47;7.20;;;5.97;;
28529;SDS011;15737;49.760;6.632;2022-08-19T03:36:18;6.27;;;5.63;;
28529;SDS011;15737;49.760;6.632;2022-08-19T03:38:49;6.20;;;5.53;;
28529;SDS011;15737;49.760;6.632;2022-08-19T03:41:24;6.97;;;6.13;;
28529;SDS011;15737;49.760;6.632;2022-08-19T03:43:57;7.50;;;5.87;;
28529;SDS011;15737;49.760;6.632;2022-08-19T03:46:24;7.00;;;6.10;;
28529;SDS011;15737;49.760;6.632;2022-08-19T03:48:53;6.93;;;5.87;;
28529;SDS011;15737;49.760;6.632;2022-08-19T03:51:21;6.50;;;5.50;;
28529;SDS011;15737;49.760;6.632;2022-08-19T03:53:58;7.00;;;6.20;;
28529;SDS011;15737;49.760;6.632;2022-08-19T03:56:25;6.33;;;5.60;;
28529;SDS011;15737;49.760;6.632;2022-08-19T03:58:52;8.77;;;6.13;;
28529;SDS011;15737;49.760;6.632;2022-08-19T04:01:19;8.23;;;6.57;;
28529;SDS011;15737;49.760;6.632;2022-08-19T04:03:47;7.97;;;7.00;;
28529;SDS011;15737;49.760;6.632;2022-08-19T04:06:17;6.83;;;6.17;;
28529;SDS011;15737;49.760;6.632;2022-08-19T04:08:53;9.37;;;6.20;;
28529;SDS011;15737;49.760;6.632;2022-08-19T04:11:22;8.10;;;6.43;;
28529;SDS011;15737;49.760;6.632;2022-08-19T04:13:53;7.20;;;6.47;;
28529;SDS011;15737;49.760;6.632;2022-08-19T04:16:23;8.03;;;7.23;;
28529;SDS011;15737;49.760;6.632;2022-08-19T04:18:53;10.67;;;8.60;;
28529;SDS011;15737;49.760;6.632;2022-08-19T04:21:21;7.43;;;6.63;;
28529;SDS011;15737;49.760;6.632;2022-08-19T04:23:49;7.80;;;6.67;;
28529;SDS011;15737;49.760;6.632;2022-08-19T04:26:15;7.77;;;6.97;;
28529;SDS011;15737;49.760;6.632;2022-08-19T04:28:44;8.53;;;7.20;;
28529;SDS011;15737;49.760;6.632;2022-08-19T04:31:14;6.13;;;5.47;;
28529;SDS011;15737;49.760;6.632;2022-08-19T04:33:41;7.57;;;6.47;;
28529;SDS011;15737;49.760;6.632;2022-08-19T04:36:07;10.17;;;7.80;;
28529;SDS011;15737;49.760;6.632;2022-08-19T04:38:40;7.03;;;6.33;;
28529;SDS011;15737;49.760;6.632;2022-08-19T04:41:06;7.33;;;6.40;;
28529;SDS011;15737;49.760;6.632;2022-08-19T04:43:50;8.40;;;6.20;;
28529;SDS011;15737;49.760;6.632;2022-08-19T04:46:16;6.57;;;5.90;;
28529;SDS011;15737;49.760;6.632;2022-08-19T04:48:42;9.63;;;6.43;;
28529;SDS011;15737;49.760;6.632;2022-08-19T04:51:09;7.97;;;6.87;;
28529;SDS011;15737;49.760;6.632;2022-08-19T04:53:38;8.77;;;6.43;;
28529;SDS011;15737;49.760;6.632;2022-08-19T04:56:10;7.83;;;6.67;;
28529;SDS011;15737;49.760;6.632;2022-08-19T04:58:37;9.43;;;7.50;;
28529;SDS011;15737;49.760;6.632;2022-08-19T05:01:07;7.27;;;6.10;;
28529;SDS011;15737;49.760;6.632;2022-08-19T05:03:35;8.17;;;7.20;;
28529;SDS011;15737;49.760;6.632;2022-08-19T05:06:08;7.23;;;6.53;;
28529;SDS011;15737;49.760;6.632;2022-08-19T05:08:36;7.83;;;6.33;;
28529;SDS011;15737;49.760;6.632;2022-08-19T05:11:09;9.13;;;6.20;;
28529;SDS011;15737;49.760;6.632;2022-08-19T05:13:39;8.13;;;6.37;;
28529;SDS011;15737;49.760;6.632;2022-08-19T05:16:07;7.30;;;6.50;;
28529;SDS011;15737;49.760;6.632;2022-08-19T05:18:32;8.00;;;6.07;;
28529;SDS011;15737;49.760;6.632;2022-08-19T05:21:17;7.20;;;6.50;;
28529;SDS011;15737;49.760;6.632;2022-08-19T05:24:03;6.73;;;6.13;;
28529;SDS011;15737;49.760;6.632;2022-08-19T05:26:32;8.93;;;6.53;;
28529;SDS011;15737;49.760;6.632;2022-08-19T05:31:32;6.93;;;6.23;;
28529;SDS011;15737;49.760;6.632;2022-08-19T05:33:58;7.22;;;5.82;;
28529;SDS011;15737;49.760;6.632;2022-08-19T05:36:25;12.68;;;8.57;;
28529;SDS011;15737;49.760;6.632;2022-08-19T05:38:51;13.98;;;8.55;;
28529;SDS011;15737;49.760;6.632;2022-08-19T05:41:18;9.90;;;8.05;;
28529;SDS011;15737;49.760;6.632;2022-08-19T05:43:44;10.27;;;7.03;;
28529;SDS011;15737;49.760;6.632;2022-08-19T05:46:15;8.77;;;6.75;;
28529;SDS011;15737;49.760;6.632;2022-08-19T05:48:45;7.80;;;7.00;;
28529;SDS011;15737;49.760;6.632;2022-08-19T05:51:11;8.63;;;7.35;;
28529;SDS011;15737;49.760;6.632;2022-08-19T05:53:37;9.40;;;7.35;;
28529;SDS011;15737;49.760;6.632;2022-08-19T05:56:06;9.50;;;7.78;;
28529;SDS011;15737;49.760;6.632;2022-08-19T05:58:34;7.95;;;7.15;;
28529;SDS011;15737;49.760;6.632;2022-08-19T06:01:00;8.85;;;7.43;;
28529;SDS011;15737;49.760;6.632;2022-08-19T06:03:30;9.88;;;7.88;;
28529;SDS011;15737;49.760;6.632;2022-08-19T06:05:57;10.48;;;8.40;;
28529;SDS011;15737;49.760;6.632;2022-08-19T06:08:27;11.23;;;8.38;;
28529;SDS011;15737;49.760;6.632;2022-08-19T06:10:53;10.15;;;8.35;;
28529;SDS011;15737;49.760;6.632;2022-08-19T06:13:19;9.45;;;8.45;;
28529;SDS011;15737;49.760;6.632;2022-08-19T06:15:46;11.50;;;9.13;;
28529;SDS011;15737;49.760;6.632;2022-08-19T06:18:12;12.57;;;8.35;;
28529;SDS011;15737;49.760;6.632;2022-08-19T06:20:39;10.15;;;8.15;;
28529;SDS011;15737;49.760;6.632;2022-08-19T06:23:05;8.52;;;7.45;;
28529;SDS011;15737;49.760;6.632;2022-08-19T06:25:31;8.15;;;6.95;;
28529;SDS011;15737;49.760;6.632;2022-08-19T06:27:57;11.43;;;7.20;;
28529;SDS011;15737;49.760;6.632;2022-08-19T06:30:22;9.05;;;7.85;;
28529;SDS011;15737;49.760;6.632;2022-08-19T06:32:48;9.23;;;7.78;;
28529;SDS011;15737;49.760;6.632;2022-08-19T06:35:14;9.85;;;8.43;;
28529;SDS011;15737;49.760;6.632;2022-08-19T06:37:39;10.27;;;8.07;;
28529;SDS011;15737;49.760;6.632;2022-08-19T06:40:05;10.10;;;9.00;;
28529;SDS011;15737;49.760;6.632;2022-08-19T06:42:33;9.73;;;8.73;;
28529;SDS011;15737;49.760;6.632;2022-08-19T06:44:59;8.77;;;7.88;;
28529;SDS011;15737;49.760;6.632;2022-08-19T06:47:28;8.15;;;7.07;;
28529;SDS011;15737;49.760;6.632;2022-08-19T06:49:57;9.15;;;7.45;;
28529;SDS011;15737;49.760;6.632;2022-08-19T06:52:37;11.07;;;8.18;;
28529;SDS011;15737;49.760;6.632;2022-08-19T06:55:04;8.27;;;7.40;;
28529;SDS011;15737;49.760;6.632;2022-08-19T06:57:30;9.50;;;7.90;;
28529;SDS011;15737;49.760;6.632;2022-08-19T06:59:57;10.60;;;8.73;;
28529;SDS011;15737;49.760;6.632;2022-08-19T07:02:24;9.10;;;7.90;;
28529;SDS011;15737;49.760;6.632;2022-08-19T07:04:51;9.55;;;8.48;;
28529;SDS011;15737;49.760;6.632;2022-08-19T07:07:17;10.93;;;9.77;;
28529;SDS011;15737;49.760;6.632;2022-08-19T07:09:45;40.38;;;38.00;;
28529;SDS011;15737;49.760;6.632;2022-08-19T07:12:11;27.63;;;25.67;;
28529;SDS011;15737;49.760;6.632;2022-08-19T07:14:40;18.73;;;16.98;;
28529;SDS011;15737;49.760;6.632;2022-08-19T07:17:10;16.25;;;14.95;;
28529;SDS011;15737;49.760;6.632;2022-08-19T07:19:37;11.07;;;9.80;;
28529;SDS011;15737;49.760;6.632;2022-08-19T07:22:05;13.80;;;9.95;;
28529;SDS011;15737;49.760;6.632;2022-08-19T07:24:32;13.05;;;10.48;;
28529;SDS011;15737;49.760;6.632;2022-08-19T07:26:58;17.02;;;15.63;;
28529;SDS011;15737;49.760;6.632;2022-08-19T07:29:28;30.17;;;28.30;;
28529;SDS011;15737;49.760;6.632;2022-08-19T07:31:57;103.97;;;98.05;;
28529;SDS011;15737;49.760;6.632;2022-08-19T07:34:24;99.15;;;93.53;;
28529;SDS011;15737;49.760;6.632;2022-08-19T07:36:50;93.72;;;88.57;;
28529;SDS011;15737;49.760;6.632;2022-08-19T07:39:18;104.10;;;98.43;;
28529;SDS011;15737;49.760;6.632;2022-08-19T07:41:47;102.38;;;96.85;;
28529;SDS011;15737;49.760;6.632;2022-08-19T07:44:13;108.75;;;103.07;;
28529;SDS011;15737;49.760;6.632;2022-08-19T07:46:42;119.30;;;113.13;;
28529;SDS011;15737;49.760;6.632;2022-08-19T07:49:09;115.50;;;109.38;;
28529;SDS011;15737;49.760;6.632;2022-08-19T07:51:54;100.72;;;95.28;;
28529;SDS011;15737;49.760;6.632;2022-08-19T07:54:23;111.45;;;105.68;;
28529;SDS011;15737;49.760;6.632;2022-08-19T07:56:50;94.68;;;89.82;;
28529;SDS011;15737;49.760;6.632;2022-08-19T07:59:16;97.25;;;92.03;;
28529;SDS011;15737;49.760;6.632;2022-08-19T08:01:43;98.57;;;93.05;;
28529;SDS011;15737;49.760;6.632;2022-08-19T08:04:09;94.15;;;89.03;;
28529;SDS011;15737;49.760;6.632;2022-08-19T08:06:53;93.57;;;88.65;;
28529;SDS011;15737;49.760;6.632;2022-08-19T08:09:38;98.75;;;93.43;;
28529;SDS011;15737;49.760;6.632;2022-08-19T08:12:07;109.20;;;103.55;;
28529;SDS011;15737;49.760;6.632;2022-08-19T08:14:37;109.47;;;104.13;;
28529;SDS011;15737;49.760;6.632;2022-08-19T08:17:06;113.03;;;107.63;;
28529;SDS011;15737;49.760;6.632;2022-08-19T08:19:32;124.93;;;119.00;;
28529;SDS011;15737;49.760;6.632;2022-08-19T08:21:59;144.57;;;137.43;;
28529;SDS011;15737;49.760;6.632;2022-08-19T08:24:27;102.35;;;97.28;;
28529;SDS011;15737;49.760;6.632;2022-08-19T08:26:54;68.15;;;64.53;;
28529;SDS011;15737;49.760;6.632;2022-08-19T08:29:19;41.50;;;38.75;;
28529;SDS011;15737;49.760;6.632;2022-08-19T08:31:45;10.38;;;9.13;;
28529;SDS011;15737;49.760;6.632;2022-08-19T08:34:12;10.23;;;9.15;;
28529;SDS011;15737;49.760;6.632;2022-08-19T08:36:40;9.30;;;8.38;;
28529;SDS011;15737;49.760;6.632;2022-08-19T08:39:08;8.50;;;7.70;;
28529;SDS011;15737;49.760;6.632;2022-08-19T08:41:36;8.18;;;7.38;;
28529;SDS011;15737;49.760;6.632;2022-08-19T08:47:23;9.10;;;8.25;;
28529;SDS011;15737;49.760;6.632;2022-08-19T08:49:53;7.85;;;7.15;;
28529;SDS011;15737;49.760;6.632;2022-08-19T08:52:25;8.93;;;8.02;;
28529;SDS011;15737;49.760;6.632;2022-08-19T08:54:55;8.50;;;6.80;;
28529;SDS011;15737;49.760;6.632;2022-08-19T08:57:29;7.93;;;7.18;;
28529;SDS011;15737;49.760;6.632;2022-08-19T09:00:34;9.00;;;8.13;;
28529;SDS011;15737;49.760;6.632;2022-08-19T09:03:03;11.85;;;9.70;;
28529;SDS011;15737;49.760;6.632;2022-08-19T09:11:09;7.60;;;6.90;;
28529;SDS011;15737;49.760;6.632;2022-08-19T09:13:42;7.25;;;5.90;;
28529;SDS011;15737;49.760;6.632;2022-08-19T09:16:18;10.48;;;8.38;;
28529;SDS011;15737;49.760;6.632;2022-08-19T09:18:53;9.20;;;8.25;;
28529;SDS011;15737;49.760;6.632;2022-08-19T09:21:22;11.77;;;8.73;;
28529;SDS011;15737;49.760;6.632;2022-08-19T09:23:49;9.48;;;8.63;;
28529;SDS011;15737;49.760;6.632;2022-08-19T09:26:16;9.43;;;7.57;;
28529;SDS011;15737;49.760;6.632;2022-08-19T09:28:44;10.02;;;9.02;;
28529;SDS011;15737;49.760;6.632;2022-08-19T09:31:11;9.55;;;8.63;;
28529;SDS011;15737;49.760;6.632;2022-08-19T09:33:38;8.98;;;8.10;;
28529;SDS011;15737;49.760;6.632;2022-08-19T09:36:05;8.20;;;6.97;;
28529;SDS011;15737;49.760;6.632;2022-08-19T09:38:33;8.05;;;7.35;;
28529;SDS011;15737;49.760;6.632;2022-08-19T09:41:06;7.45;;;6.75;;
28529;SDS011;15737;49.760;6.632;2022-08-19T09:43:33;8.05;;;7.30;;
28529;SDS011;15737;49.760;6.632;2022-08-19T09:46:01;7.65;;;6.95;;
28529;SDS011;15737;49.760;6.632;2022-08-19T09:48:30;7.88;;;7.13;;
28529;SDS011;15737;49.760;6.632;2022-08-19T09:51:07;8.07;;;7.38;;
28529;SDS011;15737;49.760;6.632;2022-08-19T09:53:34;7.80;;;6.90;;
28529;SDS011;15737;49.760;6.632;2022-08-19T09:56:01;6.53;;;5.88;;
28529;SDS011;15737;49.760;6.632;2022-08-19T09:58:27;8.95;;;7.45;;
28529;SDS011;15737;49.760;6.632;2022-08-19T10:00:55;8.23;;;7.53;;
28529;SDS011;15737;49.760;6.632;2022-08-19T10:03:22;7.72;;;7.03;;
28529;SDS011;15737;49.760;6.632;2022-08-19T10:05:48;8.48;;;7.63;;
28529;SDS011;15737;49.760;6.632;2022-08-19T10:08:14;8.52;;;6.47;;
28529;SDS011;15737;49.760;6.632;2022-08-19T10:10:41;6.50;;;5.90;;
28529;SDS011;15737;49.760;6.632;2022-08-19T10:13:08;6.13;;;5.53;;
28529;SDS011;15737;49.760;6.632;2022-08-19T10:15:34;6.82;;;6.22;;
28529;SDS011;15737;49.760;6.632;2022-08-19T10:18:00;12.23;;;6.47;;
28529;SDS011;15737;49.760;6.632;2022-08-19T10:20:26;9.45;;;7.05;;
28529;SDS011;15737;49.760;6.632;2022-08-19T10:22:52;6.75;;;5.50;;
28529;SDS011;15737;49.760;6.632;2022-08-19T10:25:17;6.03;;;5.43;;
28529;SDS011;15737;49.760;6.632;2022-08-19T10:27:43;5.68;;;5.18;;
28529;SDS011;15737;49.760;6.632;2022-08-19T10:30:09;6.15;;;5.55;;
28529;SDS011;15737;49.760;6.632;2022-08-19T10:32:35;5.82;;;5.15;;
28529;SDS011;15737;49.760;6.632;2022-08-19T10:35:01;5.70;;;5.20;;
28529;SDS011;15737;49.760;6.632;2022-08-19T10:37:28;6.10;;;5.50;;
28529;SDS011;15737;49.760;6.632;2022-08-19T10:42:26;5.47;;;4.93;;
28529;SDS011;15737;49.760;6.632;2022-08-19T10:44:51;5.47;;;5.00;;
28529;SDS011;15737;49.760;6.632;2022-08-19T10:47:17;4.28;;;3.90;;
28529;SDS011;15737;49.760;6.632;2022-08-19T10:49:42;5.18;;;4.68;;
28529;SDS011;15737;49.760;6.632;2022-08-19T10:52:26;5.15;;;4.50;;
28529;SDS011;15737;49.760;6.632;2022-08-19T10:54:58;6.03;;;5.53;;
28529;SDS011;15737;49.760;6.632;2022-08-19T10:57:46;5.38;;;4.88;;
28529;SDS011;15737;49.760;6.632;2022-08-19T11:00:12;5.30;;;4.88;;
28529;SDS011;15737;49.760;6.632;2022-08-19T11:02:38;5.28;;;4.78;;
28529;SDS011;15737;49.760;6.632;2022-08-19T11:05:04;5.30;;;4.90;;
28529;SDS011;15737;49.760;6.632;2022-08-19T11:07:31;4.97;;;4.45;;
28529;SDS011;15737;49.760;6.632;2022-08-19T11:09:57;5.10;;;4.60;;
28529;SDS011;15737;49.760;6.632;2022-08-19T11:12:23;5.80;;;4.60;;
28529;SDS011;15737;49.760;6.632;2022-08-19T11:14:49;6.05;;;5.50;;
28529;SDS011;15737;49.760;6.632;2022-08-19T11:17:15;5.63;;;5.13;;
28529;SDS011;15737;49.760;6.632;2022-08-19T11:19:40;5.75;;;5.25;;
28529;SDS011;15737;49.760;6.632;2022-08-19T11:22:07;6.07;;;5.53;;
28529;SDS011;15737;49.760;6.632;2022-08-19T11:24:35;7.13;;;6.43;;
28529;SDS011;15737;49.760;6.632;2022-08-19T11:27:03;5.25;;;4.75;;
28529;SDS011;15737;49.760;6.632;2022-08-19T11:29:32;5.97;;;5.47;;
28529;SDS011;15737;49.760;6.632;2022-08-19T11:31:59;9.15;;;6.10;;
28529;SDS011;15737;49.760;6.632;2022-08-19T11:34:28;6.90;;;6.22;;
28529;SDS011;15737;49.760;6.632;2022-08-19T11:36:54;8.07;;;6.47;;
28529;SDS011;15737;49.760;6.632;2022-08-19T11:39:24;6.30;;;5.70;;
28529;SDS011;15737;49.760;6.632;2022-08-19T11:44:17;7.18;;;6.32;;
28529;SDS011;15737;49.760;6.632;2022-08-19T11:46:43;7.15;;;6.38;;
28529;SDS011;15737;49.760;6.632;2022-08-19T11:49:11;6.40;;;5.82;;
28529;SDS011;15737;49.760;6.632;2022-08-19T11:51:37;7.10;;;6.35;;
28529;SDS011;15737;49.760;6.632;2022-08-19T11:54:04;7.75;;;6.95;;
28529;SDS011;15737;49.760;6.632;2022-08-19T11:56:30;6.85;;;5.90;;
28529;SDS011;15737;49.760;6.632;2022-08-19T11:58:56;7.22;;;6.53;;
28529;SDS011;15737;49.760;6.632;2022-08-19T12:01:22;8.18;;;6.70;;
28529;SDS011;15737;49.760;6.632;2022-08-19T12:03:49;6.53;;;5.88;;
28529;SDS011;15737;49.760;6.632;2022-08-19T12:06:20;6.82;;;5.72;;
28529;SDS011;15737;49.760;6.632;2022-08-19T12:08:50;6.22;;;5.63;;
28529;SDS011;15737;49.760;6.632;2022-08-19T12:11:16;5.03;;;4.50;;
28529;SDS011;15737;49.760;6.632;2022-08-19T12:13:42;6.13;;;5.38;;
28529;SDS011;15737;49.760;6.632;2022-08-19T12:16:15;5.53;;;5.03;;
28529;SDS011;15737;49.760;6.632;2022-08-19T12:18:44;5.05;;;4.65;;
28529;SDS011;15737;49.760;6.632;2022-08-19T12:21:13;6.55;;;5.25;;
28529;SDS011;15737;49.760;6.632;2022-08-19T12:23:41;5.15;;;4.70;;
28529;SDS011;15737;49.760;6.632;2022-08-19T12:26:08;5.72;;;5.15;;
28529;SDS011;15737;49.760;6.632;2022-08-19T12:28:35;4.32;;;3.92;;
28529;SDS011;15737;49.760;6.632;2022-08-19T12:31:01;4.07;;;3.78;;
28529;SDS011;15737;49.760;6.632;2022-08-19T12:33:26;4.53;;;4.13;;
28529;SDS011;15737;49.760;6.632;2022-08-19T12:35:53;5.57;;;5.07;;
28529;SDS011;15737;49.760;6.632;2022-08-19T12:38:19;4.90;;;4.40;;
28529;SDS011;15737;49.760;6.632;2022-08-19T12:40:48;7.90;;;4.85;;
28529;SDS011;15737;49.760;6.632;2022-08-19T12:43:14;6.60;;;6.00;;
28529;SDS011;15737;49.760;6.632;2022-08-19T12:45:43;6.78;;;5.80;;
28529;SDS011;15737;49.760;6.632;2022-08-19T12:48:09;7.60;;;6.03;;
28529;SDS011;15737;49.760;6.632;2022-08-19T12:50:35;5.95;;;5.45;;
28529;SDS011;15737;49.760;6.632;2022-08-19T12:53:00;6.47;;;5.35;;
28529;SDS011;15737;49.760;6.632;2022-08-19T12:55:26;5.63;;;5.13;;
28529;SDS011;15737;49.760;6.632;2022-08-19T12:57:54;6.35;;;5.57;;
28529;SDS011;15737;49.760;6.632;2022-08-19T13:00:20;5.88;;;4.57;;
28529;SDS011;15737;49.760;6.632;2022-08-19T13:02:51;6.07;;;5.10;;
28529;SDS011;15737;49.760;6.632;2022-08-19T13:05:18;7.70;;;5.70;;
28529;SDS011;15737;49.760;6.632;2022-08-19T13:07:51;5.45;;;4.85;;
28529;SDS011;15737;49.760;6.632;2022-08-19T13:10:20;6.07;;;5.47;;
28529;SDS011;15737;49.760;6.632;2022-08-19T13:12:48;5.93;;;5.43;;
28529;SDS011;15737;49.760;6.632;2022-08-19T13:15:15;6.70;;;6.10;;
28529;SDS011;15737;49.760;6.632;2022-08-19T13:17:45;6.55;;;5.85;;
28529;SDS011;15737;49.760;6.632;2022-08-19T13:20:14;6.80;;;6.18;;
28529;SDS011;15737;49.760;6.632;2022-08-19T13:22:41;6.20;;;5.38;;
28529;SDS011;15737;49.760;6.632;2022-08-19T13:25:07;5.68;;;5.18;;
28529;SDS011;15737;49.760;6.632;2022-08-19T13:27:34;5.68;;;5.18;;
28529;SDS011;15737;49.760;6.632;2022-08-19T13:30:00;6.78;;;5.10;;
28529;SDS011;15737;49.760;6.632;2022-08-19T13:32:46;6.03;;;5.32;;
28529;SDS011;15737;49.760;6.632;2022-08-19T13:35:30;7.78;;;5.00;;
28529;SDS011;15737;49.760;6.632;2022-08-19T13:37:56;5.65;;;5.15;;
28529;SDS011;15737;49.760;6.632;2022-08-19T13:40:22;5.05;;;4.65;;
28529;SDS011;15737;49.760;6.632;2022-08-19T13:42:52;5.22;;;4.63;;
28529;SDS011;15737;49.760;6.632;2022-08-19T13:45:20;5.63;;;5.13;;
28529;SDS011;15737;49.760;6.632;2022-08-19T13:47:55;5.85;;;5.35;;
28529;SDS011;15737;49.760;6.632;2022-08-19T13:50:23;5.68;;;5.18;;
28529;SDS011;15737;49.760;6.632;2022-08-19T13:52:51;5.93;;;4.85;;
28529;SDS011;15737;49.760;6.632;2022-08-19T13:55:18;5.60;;;5.15;;
28529;SDS011;15737;49.760;6.632;2022-08-19T13:57:44;5.85;;;4.65;;
28529;SDS011;15737;49.760;6.632;2022-08-19T14:00:12;5.35;;;4.78;;
28529;SDS011;15737;49.760;6.632;2022-08-19T14:02:40;4.88;;;4.43;;
28529;SDS011;15737;49.760;6.632;2022-08-19T14:05:07;6.15;;;4.60;;
28529;SDS011;15737;49.760;6.632;2022-08-19T14:07:34;5.75;;;4.15;;
28529;SDS011;15737;49.760;6.632;2022-08-19T14:10:01;4.13;;;3.72;;
28529;SDS011;15737;49.760;6.632;2022-08-19T14:12:28;4.68;;;3.78;;
28529;SDS011;15737;49.760;6.632;2022-08-19T14:14:53;4.20;;;3.80;;
28529;SDS011;15737;49.760;6.632;2022-08-19T14:17:19;3.85;;;3.55;;
28529;SDS011;15737;49.760;6.632;2022-08-19T14:19:44;4.55;;;3.38;;
28529;SDS011;15737;49.760;6.632;2022-08-19T14:22:10;4.22;;;3.13;;
28529;SDS011;15737;49.760;6.632;2022-08-19T14:24:39;3.63;;;3.15;;
28529;SDS011;15737;49.760;6.632;2022-08-19T14:27:05;3.72;;;3.17;;
28529;SDS011;15737;49.760;6.632;2022-08-19T14:29:31;3.30;;;3.00;;
28529;SDS011;15737;49.760;6.632;2022-08-19T14:31:57;4.03;;;2.90;;
28529;SDS011;15737;49.760;6.632;2022-08-19T14:34:24;2.80;;;2.60;;
28529;SDS011;15737;49.760;6.632;2022-08-19T14:36:52;5.38;;;2.63;;
28529;SDS011;15737;49.760;6.632;2022-08-19T14:39:18;8.18;;;2.78;;
28529;SDS011;15737;49.760;6.632;2022-08-19T14:41:44;2.50;;;2.30;;
28529;SDS011;15737;49.760;6.632;2022-08-19T14:44:10;2.47;;;2.28;;
28529;SDS011;15737;49.760;6.632;2022-08-19T14:46:37;2.03;;;1.70;;
28529;SDS011;15737;49.760;6.632;2022-08-19T14:49:04;2.30;;;2.10;;
28529;SDS011;15737;49.760;6.632;2022-08-19T14:51:29;4.72;;;1.80;;
28529;SDS011;15737;49.760;6.632;2022-08-19T14:53:55;1.55;;;1.45;;
28529;SDS011;15737;49.760;6.632;2022-08-19T14:56:22;1.55;;;1.45;;
28529;SDS011;15737;49.760;6.632;2022-08-19T14:58:50;1.40;;;1.30;;
28529;SDS011;15737;49.760;6.632;2022-08-19T15:01:16;1.95;;;1.05;;
28529;SDS011;15737;49.760;6.632;2022-08-19T15:03:45;1.13;;;1.02;;
28529;SDS011;15737;49.760;6.632;2022-08-19T15:06:11;0.80;;;0.80;;
28529;SDS011;15737;49.760;6.632;2022-08-19T15:08:38;0.68;;;0.68;;